Airfield :
LOGIN :

Register | Disclaimer

   EN    FR    IT 

 










Legend :    VFR   Marginal VFR   IFR   Intensive IFR   Very Intensive IFR
Visi :
Ceiling :
>= 8 km
>= 3000ft
5 to 8 km
1000 to 3000 ft
1500m to 5 km
500 to 1000 ft
800 to 1500m
200 to 500 ft
< 800m
< 200 ft
Symbols :   Thunderstorms  Fog  Heavy snow  Heavy precipitations  Wind > 20 kt
SIGMETs :     Misc.  Thunderstorms  Icing  Turbulence  Mountain Waves  Volcanic Ashes






- Airport Elevation : 479 ft
- IATA code : DOL


LFRG - Deauville

CURRENT METAR :
  • 270730Z AUTO 19009KT CAVOK 07/06 Q1007 TEMPO BKN010

EXPIRED METARs :
  • 270700Z AUTO 19008KT 9999 FEW027 OVC170 06/06 Q1007 TEMPO BKN010
  • 270630Z AUTO 19006KT 9999 FEW014 SCT032 OVC180 06/06 Q1008 TEMPO BKN010
  • 270600Z AUTO 19006KT 9999 FEW047 OVC180 06/06 Q1008 TEMPO BKN010
  • 270530Z AUTO 20005KT 160V220 9999 FEW017 SCT056 OVC190 06/06 Q1008
  • 270500Z AUTO 20006KT 9999 FEW013 BKN210 BKN230 06/06 Q1008

TAF TAF LFRG
Valid from the 27 at 06:00 until the 27 at 15:00 UTC


270500Z 2706/2715 19010KT 9999 BKN030
TEMPO 2706/2709 BKN010
TEMPO 2714/2715 22015G25KT 3000 SHRA BKN015TCU
PROB30
TEMPO 2714/2715 BKN012CB
ATIS : +33 2 31 65 65 36



MET'MAP, your aeronautical weather chart ! - Copyright ORBIFLY December 2007 - Disclaimer

ORBIFLY MET'MAP TEAM :

Programming & Development : Alexandra Zaïnal
Concept & original design : Baudouin d'Aumeries
Assistance for programming : Marc-Olivier Méhu
Technical & hardware support : Manuel Goepfert

Contact : metmap@orbifly.com




SOURCES & CREDITS :

   NOAA